createdAt,value
2022-11-20T00:01:32.389Z,101802.81
2022-11-20T00:04:01.839Z,101802.47
2022-11-20T00:06:31.765Z,101798.59
2022-11-20T00:09:03.172Z,101811.00
2022-11-20T00:11:33.373Z,101804.53
2022-11-20T00:14:04.013Z,101803.53
2022-11-20T00:16:34.682Z,101810.03
2022-11-20T00:19:03.777Z,101815.28
2022-11-20T00:21:33.135Z,101814.13
2022-11-20T00:24:02.155Z,101817.75
2022-11-20T00:26:31.900Z,101811.09
2022-11-20T00:29:03.577Z,101813.09
2022-11-20T00:31:35.285Z,101816.91
2022-11-20T00:34:04.356Z,101812.88
2022-11-20T00:36:35.816Z,101816.31
2022-11-20T00:39:05.308Z,101817.00
2022-11-20T00:41:34.310Z,101822.06
2022-11-20T00:44:03.377Z,101814.88
2022-11-20T00:46:32.770Z,101819.91
2022-11-20T00:49:01.782Z,101824.94
2022-11-20T00:51:30.838Z,101827.19
2022-11-20T00:54:01.711Z,101824.72
2022-11-20T00:56:30.728Z,101817.19
2022-11-20T00:59:02.027Z,101818.94
2022-11-20T01:01:31.563Z,101820.00
2022-11-20T01:04:02.305Z,101817.31
2022-11-20T01:06:34.711Z,101826.78
2022-11-20T01:09:09.712Z,101827.84
2022-11-20T01:11:41.147Z,101825.47
2022-11-20T01:14:15.138Z,101821.97
2022-11-20T01:16:47.437Z,101827.16
2022-11-20T01:19:22.829Z,101829.16
2022-11-20T01:21:55.025Z,101833.59
2022-11-20T01:24:24.381Z,101822.94
2022-11-20T01:26:54.011Z,101818.56
2022-11-20T01:29:25.670Z,101818.88
2022-11-20T01:31:55.217Z,101827.69
2022-11-20T01:34:27.896Z,101831.59
2022-11-20T01:36:58.399Z,101829.97
2022-11-20T01:39:31.704Z,101828.19
2022-11-20T01:42:19.450Z,101830.81
2022-11-20T01:44:53.215Z,101827.25
2022-11-20T01:47:35.782Z,101832.28
2022-11-20T01:50:21.069Z,101845.56
2022-11-20T01:53:14.974Z,101836.31
2022-11-20T01:55:51.998Z,101842.00
2022-11-20T01:58:24.899Z,101837.94
2022-11-20T02:00:53.959Z,101843.94
2022-11-20T02:03:23.007Z,101846.84
2022-11-20T02:06:08.109Z,101845.06
2022-11-20T02:08:38.554Z,101845.53
2022-11-20T02:11:07.516Z,101855.56
2022-11-20T02:13:45.930Z,101859.59
2022-11-20T02:16:25.856Z,101858.13
2022-11-20T02:18:56.930Z,101859.56
2022-11-20T02:21:25.783Z,101856.81
2022-11-20T02:24:27.050Z,101858.09
2022-11-20T02:27:01.670Z,101869.72
2022-11-20T02:29:55.183Z,101868.75
2022-11-20T02:32:38.266Z,101871.63
2022-11-20T02:35:20.571Z,101872.28
2022-11-20T02:37:52.876Z,101872.59
2022-11-20T02:40:22.049Z,101867.41
2022-11-20T02:42:54.855Z,101874.84
2022-11-20T02:45:24.612Z,101882.28
2022-11-20T02:47:53.934Z,101873.69
2022-11-20T02:50:23.169Z,101870.75
2022-11-20T02:52:52.104Z,101868.16
2022-11-20T02:55:21.230Z,101886.09
2022-11-20T02:57:50.152Z,101887.34
2022-11-20T03:00:19.228Z,101877.00
2022-11-20T03:02:48.485Z,101886.34
2022-11-20T03:05:17.395Z,101890.25
2022-11-20T03:07:47.224Z,101886.97
2022-11-20T03:10:16.448Z,101892.47
2022-11-20T03:12:45.315Z,101886.00
2022-11-20T03:15:14.359Z,101886.63
2022-11-20T03:17:43.301Z,101893.84
2022-11-20T03:20:12.901Z,101884.00
2022-11-20T03:22:41.903Z,101875.06
2022-11-20T03:25:10.893Z,101876.53
2022-11-20T03:27:39.790Z,101883.22
2022-11-20T03:30:09.182Z,101881.28
2022-11-20T03:32:37.998Z,101880.28
2022-11-20T03:35:07.335Z,101880.91
2022-11-20T03:37:36.161Z,101879.28
2022-11-20T03:40:05.713Z,101878.91
2022-11-20T03:42:47.195Z,101891.75
2022-11-20T03:45:18.352Z,101889.50
2022-11-20T03:47:47.402Z,101893.38
2022-11-20T03:50:16.609Z,101894.13
2022-11-20T03:52:45.516Z,101896.25
2022-11-20T03:55:14.365Z,101889.66
2022-11-20T03:57:43.373Z,101893.84
2022-11-20T04:00:12.863Z,101889.75
2022-11-20T04:02:41.635Z,101873.94
2022-11-20T04:05:10.924Z,101884.72
2022-11-20T04:07:40.011Z,101882.69
2022-11-20T04:10:10.024Z,101896.81
2022-11-20T04:12:38.836Z,101891.50
2022-11-20T04:15:07.849Z,101888.75
2022-11-20T04:17:37.351Z,101898.00
2022-11-20T04:20:10.657Z,101891.28
2022-11-20T04:22:40.096Z,101897.91
2022-11-20T04:25:09.658Z,101899.84
2022-11-20T04:27:41.854Z,101898.63
2022-11-20T04:30:11.150Z,101903.00
2022-11-20T04:32:39.871Z,101899.75
2022-11-20T04:35:09.628Z,101905.97
2022-11-20T04:37:40.314Z,101904.34
2022-11-20T04:40:09.639Z,101912.97
2022-11-20T04:42:38.541Z,101913.69
2022-11-20T04:45:08.064Z,101909.53
2022-11-20T04:47:37.029Z,101916.50
2022-11-20T04:50:07.049Z,101925.44
2022-11-20T04:52:36.031Z,101918.03
2022-11-20T04:55:05.272Z,101928.28
2022-11-20T04:57:34.260Z,101924.66
2022-11-20T05:00:03.734Z,101931.13
2022-11-20T05:02:33.909Z,101930.75
2022-11-20T05:05:02.778Z,101932.16
2022-11-20T05:07:31.755Z,101938.03
2022-11-20T05:10:00.678Z,101935.88
2022-11-20T05:12:30.495Z,101930.72
2022-11-20T05:14:59.520Z,101933.31
2022-11-20T05:17:28.546Z,101938.00
2022-11-20T05:19:57.493Z,101939.63
2022-11-20T05:22:26.340Z,101942.38
2022-11-20T05:24:55.395Z,101943.28
2022-11-20T05:27:24.307Z,101946.94
2022-11-20T05:29:53.435Z,101946.44
2022-11-20T05:32:22.342Z,101949.50
2022-11-20T05:34:51.131Z,101952.72
2022-11-20T05:37:20.031Z,101947.94
2022-11-20T05:39:48.743Z,101945.31
2022-11-20T05:42:32.472Z,101952.59
2022-11-20T05:45:02.947Z,101941.66
2022-11-20T05:47:35.954Z,101947.94
2022-11-20T05:50:04.912Z,101945.28
2022-11-20T05:52:33.643Z,101961.47
2022-11-20T05:55:03.376Z,101951.75
2022-11-20T05:57:33.876Z,101956.38
2022-11-20T06:00:03.332Z,101951.75
2022-11-20T06:02:36.248Z,101955.28
2022-11-20T06:05:05.336Z,101951.44
2022-11-20T06:07:34.149Z,101947.94
2022-11-20T06:10:02.986Z,101952.16
2022-11-20T06:12:34.735Z,101956.38
2022-11-20T06:15:03.847Z,101956.69
2022-11-20T06:17:32.573Z,101960.91
2022-11-20T06:20:01.425Z,101958.47
2022-11-20T06:22:31.000Z,101954.31
2022-11-20T06:24:59.922Z,101958.75
2022-11-20T06:27:29.378Z,101962.38
2022-11-20T06:29:58.128Z,101966.44
2022-11-20T06:32:26.846Z,101958.75
2022-11-20T06:34:55.650Z,101953.59
2022-11-20T06:37:24.571Z,101962.19
2022-11-20T06:39:53.381Z,101953.97
2022-11-20T06:42:22.171Z,101959.72
2022-11-20T06:44:51.005Z,101955.22
2022-11-20T06:47:19.730Z,101942.88
2022-11-20T06:49:48.517Z,101954.78
2022-11-20T06:52:17.280Z,101959.81
2022-11-20T06:54:46.075Z,101955.09
2022-11-20T06:57:14.796Z,101953.84
2022-11-20T06:59:43.623Z,101955.09
2022-11-20T07:02:13.840Z,101957.44
2022-11-20T07:04:42.669Z,101956.13
2022-11-20T07:07:11.421Z,101958.53
2022-11-20T07:09:40.218Z,101955.22
2022-11-20T07:12:09.091Z,101965.25
2022-11-20T07:14:37.945Z,101966.78
2022-11-20T07:17:06.629Z,101972.00
2022-11-20T07:19:35.411Z,101975.59
2022-11-20T07:22:04.140Z,101973.69
2022-11-20T07:24:33.070Z,101969.22
2022-11-20T07:27:01.773Z,101969.81
2022-11-20T07:29:30.573Z,101979.47
2022-11-20T07:31:59.397Z,101973.16
2022-11-20T07:34:28.235Z,101977.41
2022-11-20T07:36:57.181Z,101972.47
2022-11-20T07:39:25.957Z,101965.97
2022-11-20T07:41:54.633Z,101977.38
2022-11-20T07:44:23.455Z,101979.84
2022-11-20T07:46:52.255Z,101978.03
2022-11-20T07:49:21.253Z,101977.94
2022-11-20T07:51:53.013Z,101988.06
2022-11-20T07:54:22.918Z,101978.19
2022-11-20T07:56:51.691Z,101981.94
2022-11-20T07:59:20.577Z,101972.84
2022-11-20T08:01:49.431Z,101975.59
2022-11-20T08:04:18.225Z,101972.94
2022-11-20T08:06:47.119Z,101977.25
2022-11-20T08:09:15.894Z,101973.53
2022-11-20T08:12:03.068Z,101978.41
2022-11-20T08:14:31.885Z,101971.22
2022-11-20T08:17:01.343Z,101983.66
2022-11-20T08:19:30.590Z,101982.19
2022-11-20T08:21:59.270Z,101983.38
2022-11-20T08:24:28.175Z,101977.59
2022-11-20T08:27:00.670Z,101984.63
2022-11-20T08:29:29.491Z,101981.03
2022-11-20T08:31:58.263Z,101984.69
2022-11-20T08:34:27.051Z,101982.03
2022-11-20T08:36:55.888Z,101980.31
2022-11-20T08:39:24.764Z,101979.81
2022-11-20T08:41:53.585Z,101971.91
2022-11-20T08:44:22.363Z,101970.88
2022-11-20T08:46:51.170Z,101978.78
2022-11-20T08:49:20.764Z,101974.53
2022-11-20T08:51:53.415Z,101961.56
2022-11-20T08:54:23.728Z,101958.06
2022-11-20T08:56:52.549Z,101954.63
2022-11-20T08:59:44.134Z,101963.44
2022-11-20T09:02:10.219Z,101978.72
2022-11-20T09:04:38.947Z,101983.66
2022-11-20T09:07:07.789Z,101980.03
2022-11-20T09:09:36.731Z,101966.72
2022-11-20T09:12:05.753Z,101963.72
2022-11-20T09:14:35.436Z,101961.00
2022-11-20T09:17:04.681Z,101968.06
2022-11-20T09:19:35.815Z,101967.44
2022-11-20T09:22:09.946Z,101971.63
2022-11-20T09:24:38.737Z,101980.47
2022-11-20T09:27:07.621Z,101981.16
2022-11-20T09:29:36.384Z,101979.88
2022-11-20T09:32:05.364Z,101990.88
2022-11-20T09:34:34.155Z,101988.47
2022-11-20T09:37:06.362Z,101982.88
2022-11-20T09:39:40.456Z,101974.88
2022-11-20T09:42:31.650Z,101989.38
2022-11-20T09:45:15.401Z,101992.44
2022-11-20T09:47:45.316Z,101995.75
2022-11-20T09:50:40.344Z,101987.63
2022-11-20T09:53:26.808Z,101988.75
2022-11-20T09:55:57.993Z,101989.31
2022-11-20T09:58:49.532Z,101983.88
2022-11-20T10:01:21.334Z,101976.81
2022-11-20T10:03:59.054Z,101979.13
2022-11-20T10:06:36.469Z,101975.72
2022-11-20T10:09:14.473Z,101978.53
2022-11-20T10:12:07.513Z,101972.59
2022-11-20T10:14:54.822Z,101987.88
2022-11-20T10:17:33.114Z,101982.63
2022-11-20T10:20:20.112Z,101985.59
2022-11-20T10:23:30.205Z,101996.53
2022-11-20T10:26:04.393Z,102000.66
2022-11-20T10:28:57.078Z,101998.34
2022-11-20T10:31:44.521Z,101998.25
2022-11-20T10:34:23.164Z,101997.44
2022-11-20T10:36:58.270Z,102005.34
2022-11-20T10:39:46.138Z,102001.50
2022-11-20T10:42:22.887Z,102003.72
2022-11-20T10:45:06.349Z,102003.22
2022-11-20T10:47:36.113Z,102002.13
2022-11-20T10:50:10.899Z,101999.38
2022-11-20T10:53:11.042Z,102006.50
2022-11-20T10:55:52.542Z,101996.72
2022-11-20T10:58:42.974Z,101998.69
2022-11-20T11:01:29.884Z,102001.69
2022-11-20T11:04:00.510Z,102004.47
2022-11-20T11:06:42.584Z,102000.66
2022-11-20T11:09:18.296Z,101997.63
2022-11-20T11:11:47.334Z,102002.78
2022-11-20T11:14:18.041Z,101990.44
2022-11-20T11:16:55.424Z,101993.47
2022-11-20T11:19:25.124Z,101986.38
2022-11-20T11:21:58.935Z,101982.00
2022-11-20T11:24:45.771Z,101994.03
2022-11-20T11:27:19.390Z,101991.84
2022-11-20T11:29:49.006Z,101973.81
2022-11-20T11:32:22.409Z,101974.69
2022-11-20T11:35:06.602Z,101974.72
2022-11-20T11:37:38.627Z,101981.53
2022-11-20T11:40:25.233Z,101978.00
2022-11-20T11:43:04.218Z,101980.75
2022-11-20T11:45:33.488Z,101985.38
2022-11-20T11:48:05.589Z,101983.75
2022-11-20T11:50:35.192Z,101977.09
2022-11-20T11:53:21.118Z,101981.84
2022-11-20T11:56:05.042Z,101977.03
2022-11-20T11:58:55.701Z,101986.16
2022-11-20T12:01:42.668Z,101988.63
2022-11-20T12:04:48.815Z,101995.47
2022-11-20T12:07:47.560Z,102003.22
2022-11-20T12:10:24.373Z,101995.91
2022-11-20T12:13:03.990Z,101992.75
2022-11-20T12:15:35.714Z,101980.34
2022-11-20T12:18:11.320Z,101978.94
2022-11-20T12:21:04.385Z,101980.44
2022-11-20T12:24:01.475Z,101984.78
2022-11-20T12:26:54.853Z,101982.78
2022-11-20T12:29:35.123Z,101992.75
2022-11-20T12:32:24.332Z,101993.84
2022-11-20T12:35:30.308Z,101998.44
2022-11-20T12:37:59.012Z,101996.28
2022-11-20T12:41:37.189Z,102003.31
2022-11-20T12:45:02.889Z,102002.28
2022-11-20T12:47:40.467Z,102007.72
2022-11-20T12:50:53.690Z,102009.84
2022-11-20T12:53:53.441Z,101996.31
2022-11-20T12:56:48.374Z,101990.38
2022-11-20T12:59:50.631Z,101991.84
2022-11-20T13:02:32.694Z,101993.28
2022-11-20T13:05:20.665Z,101998.94
2022-11-20T13:07:52.544Z,101996.56
2022-11-20T13:10:45.634Z,101998.50
2022-11-20T13:13:28.073Z,102001.06
2022-11-20T13:16:06.443Z,102001.03
2022-11-20T13:18:41.428Z,101993.97
2022-11-20T13:21:19.101Z,101992.78
2022-11-20T13:23:48.732Z,101992.59
2022-11-20T13:26:17.405Z,102001.38
2022-11-20T13:28:48.727Z,102004.47
2022-11-20T13:31:35.858Z,102003.28
2022-11-20T13:34:08.230Z,102005.31
2022-11-20T13:36:38.357Z,102013.50
2022-11-20T13:39:08.040Z,102011.22
2022-11-20T13:41:41.141Z,102013.22
2022-11-20T13:44:16.991Z,102011.44
2022-11-20T13:46:48.025Z,102009.56
2022-11-20T13:49:45.339Z,102016.66
2022-11-20T13:52:35.638Z,102020.16
2022-11-20T13:55:19.510Z,102021.06
2022-11-20T13:58:12.497Z,102031.00
2022-11-20T14:00:55.332Z,102018.03
2022-11-20T14:03:58.551Z,102009.75
2022-11-20T14:06:29.252Z,102009.22
2022-11-20T14:08:59.149Z,102019.22
2022-11-20T14:11:33.210Z,102002.13
2022-11-20T14:14:04.699Z,102005.47
2022-11-20T14:16:36.563Z,102015.56
2022-11-20T14:19:23.653Z,102009.06
2022-11-20T14:22:18.544Z,102018.75
2022-11-20T14:24:48.406Z,102012.53
2022-11-20T14:27:22.226Z,102009.63
2022-11-20T14:29:52.462Z,102016.44
2022-11-20T14:32:24.235Z,102005.03
2022-11-20T14:34:53.284Z,102004.69
2022-11-20T14:37:26.080Z,101998.25
2022-11-20T14:39:57.469Z,101991.53
2022-11-20T14:42:28.931Z,101982.09
2022-11-20T14:45:02.129Z,101972.28
2022-11-20T14:47:33.118Z,101984.09
2022-11-20T14:50:07.391Z,101976.38
2022-11-20T14:52:38.429Z,101994.78
2022-11-20T14:55:07.521Z,101988.38
2022-11-20T14:57:38.107Z,101999.94
2022-11-20T15:00:13.069Z,102000.47
2022-11-20T15:02:49.738Z,101993.53
2022-11-20T15:05:20.760Z,102003.63
2022-11-20T15:07:52.480Z,102007.47
2022-11-20T15:10:28.072Z,102016.59
2022-11-20T15:13:33.351Z,102017.69
2022-11-20T15:16:04.070Z,102013.28
2022-11-20T15:18:43.343Z,102013.72
2022-11-20T15:21:21.061Z,102024.44
2022-11-20T15:23:50.979Z,102024.97
2022-11-20T15:26:28.594Z,102027.59
2022-11-20T15:28:57.542Z,102030.72
2022-11-20T15:31:26.621Z,102023.28
2022-11-20T15:33:55.534Z,102029.69
2022-11-20T15:36:24.262Z,102027.34
2022-11-20T15:38:53.021Z,102024.69
2022-11-20T15:41:21.767Z,102026.03
2022-11-20T15:43:51.688Z,102019.97
2022-11-20T15:46:28.592Z,102028.78
2022-11-20T15:48:59.343Z,102036.88
2022-11-20T15:51:28.397Z,102048.88
2022-11-20T15:53:58.045Z,102043.84
2022-11-20T15:56:27.697Z,102043.56
2022-11-20T15:58:56.517Z,102043.63
2022-11-20T16:01:25.508Z,102047.81
2022-11-20T16:03:54.246Z,102056.31
2022-11-20T16:06:23.089Z,102058.66
2022-11-20T16:08:51.967Z,102063.66
2022-11-20T16:11:20.969Z,102061.19
2022-11-20T16:14:08.149Z,102062.25
2022-11-20T16:16:38.333Z,102067.72
2022-11-20T16:19:07.223Z,102068.09
2022-11-20T16:21:36.671Z,102073.66
2022-11-20T16:24:07.999Z,102079.13
2022-11-20T16:26:37.743Z,102074.09
2022-11-20T16:29:08.302Z,102076.38
2022-11-20T16:31:37.336Z,102083.41
2022-11-20T16:34:12.431Z,102082.94
2022-11-20T16:36:45.300Z,102089.47
2022-11-20T16:39:19.048Z,102083.88
2022-11-20T16:41:50.519Z,102090.19
2022-11-20T16:44:19.303Z,102092.44
2022-11-20T16:46:48.090Z,102087.44
2022-11-20T16:49:16.927Z,102093.56
2022-11-20T16:51:46.219Z,102096.34
2022-11-20T16:54:19.438Z,102102.63
2022-11-20T16:56:55.187Z,102095.63
2022-11-20T16:59:24.076Z,102097.72
2022-11-20T17:01:52.925Z,102098.53
2022-11-20T17:04:22.117Z,102100.00
2022-11-20T17:06:51.629Z,102096.75
2022-11-20T17:09:20.577Z,102090.16
2022-11-20T17:11:50.249Z,102098.25
2022-11-20T17:14:19.240Z,102096.03
2022-11-20T17:16:48.203Z,102105.78
2022-11-20T17:19:17.633Z,102098.31
2022-11-20T17:21:46.525Z,102104.47
2022-11-20T17:24:17.075Z,102099.41
2022-11-20T17:26:46.423Z,102093.94
2022-11-20T17:29:24.834Z,102091.72
2022-11-20T17:31:55.646Z,102101.63
2022-11-20T17:34:25.535Z,102090.72
2022-11-20T17:36:55.751Z,102093.44
2022-11-20T17:39:24.629Z,102088.38
2022-11-20T17:42:11.826Z,102089.09
2022-11-20T17:44:44.061Z,102097.97
2022-11-20T17:47:13.088Z,102096.13
2022-11-20T17:49:44.978Z,102101.44
2022-11-20T17:52:13.967Z,102092.56
2022-11-20T17:54:42.745Z,102090.53
2022-11-20T17:57:29.872Z,102084.84
2022-11-20T18:00:02.653Z,102089.41
2022-11-20T18:02:33.984Z,102094.19
2022-11-20T18:05:04.237Z,102083.13
2022-11-20T18:07:35.846Z,102089.31
2022-11-20T18:10:09.985Z,102096.34
2022-11-20T18:12:38.780Z,102099.09
2022-11-20T18:15:11.757Z,102100.50
2022-11-20T18:17:40.661Z,102092.31
2022-11-20T18:22:59.548Z,102112.19
2022-11-20T18:25:29.037Z,102114.59
2022-11-20T18:27:57.973Z,102112.50
2022-11-20T18:30:26.814Z,102113.22
2022-11-20T18:32:57.441Z,102117.38
2022-11-20T18:35:28.068Z,102109.00
2022-11-20T18:37:56.980Z,102109.38
2022-11-20T18:40:25.769Z,102103.59
2022-11-20T18:43:12.993Z,102099.59
2022-11-20T18:45:41.815Z,102092.34
2022-11-20T18:48:10.643Z,102086.69
2022-11-20T18:50:39.572Z,102087.19
2022-11-20T18:53:08.314Z,102085.25
2022-11-20T18:55:37.336Z,102074.59
2022-11-20T18:58:06.070Z,102090.28
2022-11-20T19:00:34.881Z,102082.38
2022-11-20T19:03:03.662Z,102083.69
2022-11-20T19:05:32.501Z,102084.31
2022-11-20T19:08:01.221Z,102074.41
2022-11-20T19:10:30.260Z,102079.88
2022-11-20T19:13:00.026Z,102071.69
2022-11-20T19:15:30.247Z,102071.41
2022-11-20T19:17:59.557Z,102065.19
2022-11-20T19:20:28.323Z,102060.09
2022-11-20T19:22:57.454Z,102058.06
2022-11-20T19:25:26.166Z,102057.22
2022-11-20T19:27:55.340Z,102050.38
2022-11-20T19:30:24.123Z,102044.56
2022-11-20T19:32:53.056Z,102042.06
2022-11-20T19:35:22.406Z,102041.44
2022-11-20T19:37:52.826Z,102032.91
2022-11-20T19:40:22.089Z,102034.53
2022-11-20T19:42:50.865Z,102044.13
2022-11-20T19:45:19.606Z,102041.28
2022-11-20T19:50:37.212Z,102047.72
2022-11-20T19:53:08.128Z,102043.47
2022-11-20T19:55:37.495Z,102044.38
2022-11-20T19:58:07.058Z,102038.66
2022-11-20T20:00:36.057Z,102033.31
2022-11-20T20:03:04.789Z,102037.13
2022-11-20T20:05:36.119Z,102043.03
2022-11-20T20:08:05.075Z,102037.97
2022-11-20T20:10:34.147Z,102043.97
2022-11-20T20:13:03.086Z,102048.66
2022-11-20T20:15:32.355Z,102040.78
2022-11-20T20:18:01.581Z,102043.84
2022-11-20T20:20:30.458Z,102033.81
2022-11-20T20:22:59.404Z,102034.91
2022-11-20T20:25:28.384Z,102026.88
2022-11-20T20:27:58.116Z,102017.53
2022-11-20T20:30:29.296Z,102016.56
2022-11-20T20:32:58.444Z,102025.69
2022-11-20T20:35:27.509Z,102023.53
2022-11-20T20:37:59.058Z,102023.25
2022-11-20T20:40:27.967Z,102022.69
2022-11-20T20:42:57.048Z,102016.22
2022-11-20T20:45:29.043Z,102014.13
2022-11-20T20:47:58.530Z,102012.16
2022-11-20T20:50:28.342Z,102008.41
2022-11-20T20:53:00.539Z,101999.41
2022-11-20T20:55:29.621Z,101999.47
2022-11-20T20:57:58.529Z,102002.50
2022-11-20T21:00:27.550Z,101993.63
2022-11-20T21:02:56.510Z,101988.50
2022-11-20T21:05:25.765Z,101977.47
2022-11-20T21:08:12.839Z,101996.34
2022-11-20T21:11:05.847Z,101979.97
2022-11-20T21:13:52.715Z,101980.00
2022-11-20T21:16:25.972Z,101976.25
2022-11-20T21:18:54.943Z,101978.34
2022-11-20T21:21:42.082Z,101986.09
2022-11-20T21:24:10.997Z,101983.00
2022-11-20T21:26:39.706Z,101972.81
2022-11-20T21:29:08.853Z,101972.72
2022-11-20T21:31:38.242Z,101962.72
2022-11-20T21:34:09.013Z,101955.56
2022-11-20T21:36:37.821Z,101953.78
2022-11-20T21:39:07.545Z,101948.50
2022-11-20T21:41:37.005Z,101945.28
2022-11-20T21:44:30.177Z,101941.97
2022-11-20T21:46:56.977Z,101943.19
2022-11-20T21:49:26.200Z,101940.75
2022-11-20T21:51:55.243Z,101939.56
2022-11-20T21:54:24.203Z,101940.84
2022-11-20T21:56:53.248Z,101941.25
2022-11-20T21:59:22.907Z,101939.75
2022-11-20T22:01:51.813Z,101938.28
2022-11-20T22:04:22.384Z,101939.59
2022-11-20T22:06:51.504Z,101942.47
2022-11-20T22:09:20.536Z,101938.78
2022-11-20T22:11:49.473Z,101941.22
2022-11-20T22:14:24.829Z,101937.50
2022-11-20T22:16:54.668Z,101943.69
2022-11-20T22:19:24.444Z,101945.31
2022-11-20T22:21:53.471Z,101943.72
2022-11-20T22:24:24.174Z,101933.94
2022-11-20T22:26:53.178Z,101943.00
2022-11-20T22:29:22.734Z,101939.63
2022-11-20T22:31:54.571Z,101941.63
2022-11-20T22:34:23.723Z,101935.91
2022-11-20T22:36:52.683Z,101937.84
2022-11-20T22:39:23.628Z,101932.19
2022-11-20T22:41:52.424Z,101928.75
2022-11-20T22:44:21.237Z,101924.56
2022-11-20T22:46:50.240Z,101930.78
2022-11-20T22:49:19.205Z,101932.78
2022-11-20T22:51:48.195Z,101928.16
2022-11-20T22:54:17.214Z,101921.09
2022-11-20T22:56:46.449Z,101913.84
2022-11-20T22:59:16.351Z,101919.97
2022-11-20T23:01:45.870Z,101921.56
2022-11-20T23:04:20.430Z,101920.69
2022-11-20T23:06:49.233Z,101917.22
2022-11-20T23:09:19.868Z,101922.63
2022-11-20T23:11:48.695Z,101921.75
2022-11-20T23:14:28.047Z,101920.31
2022-11-20T23:16:56.928Z,101911.19
2022-11-20T23:19:25.971Z,101915.25
2022-11-20T23:21:55.400Z,101910.03
2022-11-20T23:24:24.766Z,101923.22
2022-11-20T23:26:53.874Z,101918.81
2022-11-20T23:29:23.027Z,101920.41
2022-11-20T23:31:52.364Z,101919.66
2022-11-20T23:34:23.013Z,101917.19
2022-11-20T23:36:52.680Z,101918.91
2022-11-20T23:39:21.535Z,101916.97
2022-11-20T23:41:50.657Z,101919.13
2022-11-20T23:44:24.434Z,101908.16
2022-11-20T23:46:56.679Z,101911.03
2022-11-20T23:49:33.842Z,101918.75
2022-11-20T23:52:09.281Z,101912.09
2022-11-20T23:54:38.305Z,101921.41
2022-11-20T23:57:07.143Z,101914.75
2022-11-20T23:59:39.227Z,101916.06
